createdAt,value
2023-02-18T00:01:10.301Z,5.98
2023-02-18T00:02:42.103Z,5.99
2023-02-18T00:04:14.425Z,6.01
2023-02-18T00:05:46.393Z,6.06
2023-02-18T00:07:18.420Z,6.11
2023-02-18T00:08:50.160Z,6.13
2023-02-18T00:10:21.687Z,6.16
2023-02-18T00:11:53.802Z,6.20
2023-02-18T00:13:25.399Z,6.25
2023-02-18T00:14:56.954Z,6.23
2023-02-18T00:16:28.825Z,6.18
2023-02-18T00:18:00.422Z,6.14
2023-02-18T00:19:32.359Z,6.10
2023-02-18T00:21:04.936Z,6.07
2023-02-18T00:22:36.572Z,6.00
2023-02-18T00:24:08.573Z,5.94
2023-02-18T00:25:40.115Z,5.84
2023-02-18T00:27:11.661Z,5.81
2023-02-18T00:28:43.329Z,5.72
2023-02-18T00:30:15.069Z,5.67
2023-02-18T00:31:46.767Z,5.63
2023-02-18T00:33:18.360Z,5.58
2023-02-18T00:34:49.926Z,5.54
2023-02-18T00:36:22.372Z,5.57
2023-02-18T00:37:54.079Z,5.59
2023-02-18T00:39:25.673Z,5.62
2023-02-18T00:40:57.676Z,5.69
2023-02-18T00:42:29.426Z,5.68
2023-02-18T00:44:01.123Z,5.66
2023-02-18T00:45:32.641Z,5.65
2023-02-18T00:47:04.636Z,5.60
2023-02-18T00:48:36.154Z,5.58
2023-02-18T00:50:08.158Z,5.51
2023-02-18T00:51:39.742Z,5.52
2023-02-18T00:53:11.444Z,5.51
2023-02-18T00:54:43.035Z,5.51
2023-02-18T00:56:14.557Z,5.59
2023-02-18T00:57:46.166Z,5.71
2023-02-18T00:59:17.662Z,5.81
2023-02-18T01:00:49.226Z,5.87
2023-02-18T01:02:20.699Z,5.96
2023-02-18T01:03:52.223Z,6.03
2023-02-18T01:05:23.730Z,6.12
2023-02-18T01:06:55.738Z,6.22
2023-02-18T01:08:27.191Z,6.33
2023-02-18T01:09:59.378Z,6.37
2023-02-18T01:11:30.948Z,6.48
2023-02-18T01:13:04.468Z,6.61
2023-02-18T01:14:36.038Z,6.70
2023-02-18T01:16:08.138Z,6.80
2023-02-18T01:17:40.070Z,6.86
2023-02-18T01:19:11.768Z,6.95
2023-02-18T01:20:43.695Z,7.01
2023-02-18T01:22:15.284Z,7.02
2023-02-18T01:23:47.027Z,7.06
2023-02-18T01:25:18.672Z,7.09
2023-02-18T01:26:50.608Z,7.13
2023-02-18T01:28:25.257Z,7.11
2023-02-18T01:29:57.466Z,7.14
2023-02-18T01:31:29.096Z,7.22
2023-02-18T01:33:03.097Z,7.28
2023-02-18T01:34:34.686Z,7.28
2023-02-18T01:36:07.016Z,7.31
2023-02-18T01:37:38.923Z,7.34
2023-02-18T01:39:10.457Z,7.38
2023-02-18T01:40:48.960Z,7.32
2023-02-18T01:42:25.972Z,7.30
2023-02-18T01:44:16.008Z,7.25
2023-02-18T01:45:52.656Z,7.23
2023-02-18T01:47:24.342Z,7.18
2023-02-18T01:48:59.282Z,7.10
2023-02-18T01:50:31.250Z,6.99
2023-02-18T01:52:04.538Z,6.91
2023-02-18T01:53:37.939Z,6.86
2023-02-18T01:55:09.554Z,6.83
2023-02-18T01:56:48.821Z,6.88
2023-02-18T01:58:20.410Z,7.00
2023-02-18T01:59:56.077Z,7.07
2023-02-18T02:01:27.715Z,7.16
2023-02-18T02:02:59.282Z,7.18
2023-02-18T02:04:31.328Z,7.16
2023-02-18T02:06:02.892Z,7.10
2023-02-18T02:07:34.890Z,7.02
2023-02-18T02:09:06.948Z,6.93
2023-02-18T02:10:45.619Z,6.81
2023-02-18T02:12:17.165Z,6.67
2023-02-18T02:13:48.773Z,6.53
2023-02-18T02:15:20.344Z,6.42
2023-02-18T02:17:03.872Z,6.34
2023-02-18T02:18:39.308Z,6.31
2023-02-18T02:20:17.436Z,6.25
2023-02-18T02:22:07.817Z,6.18
2023-02-18T02:23:45.888Z,6.11
2023-02-18T02:25:23.740Z,6.09
2023-02-18T02:27:14.149Z,6.06
2023-02-18T02:29:00.867Z,6.02
2023-02-18T02:30:53.822Z,5.90
2023-02-18T02:32:25.265Z,5.73
2023-02-18T02:33:57.275Z,5.64
2023-02-18T02:35:38.282Z,5.52
2023-02-18T02:37:14.755Z,5.35
2023-02-18T02:38:52.521Z,5.15
2023-02-18T02:40:36.372Z,5.00
2023-02-18T02:42:10.994Z,4.85
2023-02-18T02:44:11.727Z,4.84
2023-02-18T02:45:59.500Z,4.85
2023-02-18T02:47:38.834Z,4.86
2023-02-18T02:49:33.280Z,4.87
2023-02-18T02:51:04.916Z,4.91
2023-02-18T02:52:44.546Z,4.87
2023-02-18T02:54:23.646Z,4.89
2023-02-18T02:55:56.636Z,4.87
2023-02-18T02:57:28.619Z,4.88
2023-02-18T02:59:01.015Z,4.90
2023-02-18T03:00:52.901Z,5.01
2023-02-18T03:02:37.645Z,5.16
2023-02-18T03:04:15.390Z,5.28
2023-02-18T03:06:07.121Z,5.33
2023-02-18T03:07:57.654Z,5.39
2023-02-18T03:09:29.695Z,5.38
2023-02-18T03:11:04.168Z,5.25
2023-02-18T03:12:38.795Z,5.14
2023-02-18T03:14:15.576Z,5.07
2023-02-18T03:15:51.145Z,4.97
2023-02-18T03:17:23.963Z,4.96
2023-02-18T03:19:21.751Z,5.01
2023-02-18T03:21:01.646Z,5.16
2023-02-18T03:22:34.271Z,5.16
2023-02-18T03:24:08.760Z,5.13
2023-02-18T03:25:40.479Z,5.17
2023-02-18T03:27:14.260Z,5.21
2023-02-18T03:28:45.904Z,5.31
2023-02-18T03:30:18.380Z,5.38
2023-02-18T03:31:51.433Z,5.37
2023-02-18T03:33:25.272Z,5.32
2023-02-18T03:34:58.321Z,5.17
2023-02-18T03:36:29.914Z,5.03
2023-02-18T03:38:02.970Z,4.94
2023-02-18T03:39:34.690Z,4.88
2023-02-18T03:41:06.287Z,4.83
2023-02-18T03:42:37.870Z,4.74
2023-02-18T03:44:09.528Z,4.67
2023-02-18T03:45:41.248Z,4.58
2023-02-18T03:47:12.846Z,4.51
2023-02-18T03:48:44.624Z,4.48
2023-02-18T03:50:16.639Z,4.48
2023-02-18T03:51:48.522Z,4.48
2023-02-18T03:53:20.507Z,4.48
2023-02-18T03:54:52.350Z,4.48
2023-02-18T03:56:24.065Z,4.52
2023-02-18T03:57:55.615Z,4.56
2023-02-18T03:59:27.256Z,4.51
2023-02-18T04:00:59.275Z,4.52
2023-02-18T04:02:30.988Z,4.48
2023-02-18T04:04:03.358Z,4.44
2023-02-18T04:05:35.044Z,4.40
2023-02-18T04:07:06.528Z,4.32
2023-02-18T04:08:38.066Z,4.30
2023-02-18T04:10:09.803Z,4.32
2023-02-18T04:11:41.400Z,4.28
2023-02-18T04:13:13.016Z,4.23
2023-02-18T04:14:45.276Z,4.18
2023-02-18T04:16:16.846Z,4.11
2023-02-18T04:17:48.792Z,4.08
2023-02-18T04:19:20.397Z,4.01
2023-02-18T04:20:51.981Z,3.97
2023-02-18T04:22:23.457Z,3.93
2023-02-18T04:23:55.004Z,3.90
2023-02-18T04:25:26.443Z,3.86
2023-02-18T04:26:58.098Z,3.80
2023-02-18T04:28:29.688Z,3.76
2023-02-18T04:30:01.281Z,3.73
2023-02-18T04:31:32.914Z,3.66
2023-02-18T04:33:04.370Z,3.54
2023-02-18T04:34:36.466Z,3.49
2023-02-18T04:36:08.709Z,3.40
2023-02-18T04:37:40.406Z,3.33
2023-02-18T04:39:11.898Z,3.27
2023-02-18T04:40:43.395Z,3.22
2023-02-18T04:42:14.867Z,3.15
2023-02-18T04:43:46.608Z,3.06
2023-02-18T04:45:18.092Z,2.98
2023-02-18T04:46:49.626Z,2.92
2023-02-18T04:48:21.182Z,2.85
2023-02-18T04:49:52.654Z,2.82
2023-02-18T04:51:24.343Z,2.79
2023-02-18T04:52:55.980Z,2.77
2023-02-18T04:54:27.575Z,2.73
2023-02-18T04:55:59.580Z,2.67
2023-02-18T04:57:31.083Z,2.66
2023-02-18T04:59:02.671Z,2.65
2023-02-18T05:00:34.138Z,2.65
2023-02-18T05:02:05.766Z,2.67
2023-02-18T05:03:37.195Z,2.70
2023-02-18T05:05:09.058Z,2.70
2023-02-18T05:06:43.041Z,2.72
2023-02-18T05:08:16.355Z,2.73
2023-02-18T05:09:47.869Z,2.72
2023-02-18T05:11:19.321Z,2.72
2023-02-18T05:12:50.898Z,2.70
2023-02-18T05:14:22.457Z,2.73
2023-02-18T05:15:54.001Z,2.74
2023-02-18T05:17:25.510Z,2.72
2023-02-18T05:18:57.132Z,2.74
2023-02-18T05:20:28.833Z,2.76
2023-02-18T05:22:00.413Z,2.78
2023-02-18T05:23:31.920Z,2.78
2023-02-18T05:25:03.512Z,2.82
2023-02-18T05:26:35.056Z,2.84
2023-02-18T05:28:06.648Z,2.80
2023-02-18T05:29:38.204Z,2.77
2023-02-18T05:31:09.860Z,2.78
2023-02-18T05:32:41.578Z,2.78
2023-02-18T05:34:13.321Z,2.78
2023-02-18T05:35:44.804Z,2.78
2023-02-18T05:37:18.601Z,2.76
2023-02-18T05:38:50.040Z,2.75
2023-02-18T05:40:21.521Z,2.73
2023-02-18T05:41:53.018Z,2.73
2023-02-18T05:43:24.553Z,2.73
2023-02-18T05:44:56.079Z,2.72
2023-02-18T05:46:28.918Z,2.69
2023-02-18T05:48:01.493Z,2.68
2023-02-18T05:49:33.152Z,2.70
2023-02-18T05:51:04.843Z,2.76
2023-02-18T05:52:36.536Z,2.78
2023-02-18T05:54:08.121Z,2.80
2023-02-18T05:55:39.737Z,2.84
2023-02-18T05:57:11.643Z,2.89
2023-02-18T05:58:43.206Z,2.91
2023-02-18T06:00:14.802Z,3.00
2023-02-18T06:01:46.654Z,3.06
2023-02-18T06:03:18.216Z,3.11
2023-02-18T06:04:49.806Z,3.17
2023-02-18T06:06:21.610Z,3.22
2023-02-18T06:07:55.209Z,3.28
2023-02-18T06:09:27.885Z,3.32
2023-02-18T06:10:59.849Z,3.36
2023-02-18T06:12:31.463Z,3.42
2023-02-18T06:14:03.086Z,3.47
2023-02-18T06:15:34.664Z,3.60
2023-02-18T06:17:06.420Z,3.78
2023-02-18T06:18:37.953Z,3.89
2023-02-18T06:20:09.792Z,4.04
2023-02-18T06:21:41.295Z,4.20
2023-02-18T06:23:12.921Z,4.36
2023-02-18T06:24:44.613Z,4.51
2023-02-18T06:26:16.122Z,4.66
2023-02-18T06:27:47.728Z,4.84
2023-02-18T06:29:19.394Z,5.02
2023-02-18T06:30:50.882Z,5.22
2023-02-18T06:32:22.604Z,5.41
2023-02-18T06:33:54.239Z,5.56
2023-02-18T06:35:25.988Z,5.71
2023-02-18T06:36:58.519Z,5.87
2023-02-18T06:38:30.972Z,6.03
2023-02-18T06:40:02.489Z,6.17
2023-02-18T06:41:34.240Z,6.30
2023-02-18T06:43:05.720Z,6.34
2023-02-18T06:44:38.130Z,6.32
2023-02-18T06:46:10.104Z,6.22
2023-02-18T06:47:41.863Z,6.16
2023-02-18T06:49:13.379Z,6.21
2023-02-18T06:50:44.922Z,6.28
2023-02-18T06:52:16.583Z,6.35
2023-02-18T06:53:48.178Z,6.39
2023-02-18T06:55:19.784Z,6.46
2023-02-18T06:56:51.391Z,6.51
2023-02-18T06:58:23.596Z,6.55
2023-02-18T06:59:55.380Z,6.64
2023-02-18T07:01:27.453Z,6.73
2023-02-18T07:02:59.031Z,6.79
2023-02-18T07:04:30.965Z,6.87
2023-02-18T07:06:03.061Z,6.91
2023-02-18T07:07:34.730Z,6.98
2023-02-18T07:09:06.490Z,7.01
2023-02-18T07:10:38.448Z,7.05
2023-02-18T07:12:10.054Z,7.11
2023-02-18T07:13:41.707Z,7.15
2023-02-18T07:15:13.374Z,7.21
2023-02-18T07:16:45.038Z,7.25
2023-02-18T07:18:17.077Z,7.25
2023-02-18T07:19:49.139Z,7.21
2023-02-18T07:21:20.771Z,7.20
2023-02-18T07:22:52.665Z,7.23
2023-02-18T07:24:24.273Z,7.27
2023-02-18T07:26:06.183Z,7.32
2023-02-18T07:27:38.001Z,7.31
2023-02-18T07:29:09.717Z,7.31
2023-02-18T07:30:41.482Z,7.33
2023-02-18T07:32:13.498Z,7.34
2023-02-18T07:33:45.112Z,7.39
2023-02-18T07:35:17.483Z,7.39
2023-02-18T07:36:49.187Z,7.47
2023-02-18T07:38:21.339Z,7.56
2023-02-18T07:39:53.358Z,7.67
2023-02-18T07:41:25.045Z,7.78
2023-02-18T07:42:56.969Z,7.90
2023-02-18T07:44:28.767Z,8.02
2023-02-18T07:46:00.386Z,8.13
2023-02-18T07:47:32.204Z,8.25
2023-02-18T07:49:04.632Z,8.34
2023-02-18T07:50:38.145Z,8.38
2023-02-18T07:52:09.790Z,8.35
2023-02-18T07:53:41.537Z,8.27
2023-02-18T07:55:13.438Z,8.14
2023-02-18T07:56:45.859Z,8.12
2023-02-18T07:58:18.491Z,8.11
2023-02-18T07:59:50.100Z,8.07
2023-02-18T08:01:21.737Z,8.05
2023-02-18T08:02:54.063Z,7.96
2023-02-18T08:04:25.647Z,7.93
2023-02-18T08:05:57.817Z,7.92
2023-02-18T08:07:29.673Z,7.99
2023-02-18T08:09:01.774Z,8.05
2023-02-18T08:10:33.832Z,8.17
2023-02-18T08:12:06.040Z,8.35
2023-02-18T08:13:38.140Z,8.55
2023-02-18T08:15:10.087Z,8.70
2023-02-18T08:16:41.994Z,8.84
2023-02-18T08:18:17.483Z,9.12
2023-02-18T08:19:49.718Z,9.39
2023-02-18T08:21:21.997Z,9.63
2023-02-18T08:22:53.676Z,9.81
2023-02-18T08:24:25.300Z,9.93
2023-02-18T08:25:56.881Z,10.03
2023-02-18T08:27:28.803Z,10.18
2023-02-18T08:29:00.452Z,10.31
2023-02-18T08:30:32.981Z,10.34
2023-02-18T08:32:05.184Z,10.31
2023-02-18T08:33:37.194Z,10.35
2023-02-18T08:35:10.377Z,10.36
2023-02-18T08:36:42.536Z,10.41
2023-02-18T08:38:14.435Z,10.48
2023-02-18T08:39:46.440Z,10.47
2023-02-18T08:41:23.107Z,10.50
2023-02-18T08:42:55.912Z,10.54
2023-02-18T08:44:28.492Z,10.55
2023-02-18T08:46:04.222Z,10.53
2023-02-18T08:48:17.201Z,10.56
2023-02-18T08:49:29.824Z,10.60
2023-02-18T08:51:11.210Z,10.66
2023-02-18T08:52:43.853Z,10.69
2023-02-18T08:54:16.159Z,10.77
2023-02-18T08:55:49.389Z,10.79
2023-02-18T08:57:22.257Z,10.90
2023-02-18T08:58:54.720Z,11.02
2023-02-18T09:00:26.655Z,11.14
2023-02-18T09:01:58.990Z,11.17
2023-02-18T09:03:31.472Z,11.19
2023-02-18T09:05:04.999Z,11.25
2023-02-18T09:06:42.112Z,11.28
2023-02-18T09:08:14.497Z,11.35
2023-02-18T09:09:47.098Z,11.46
2023-02-18T09:11:20.532Z,11.52
2023-02-18T09:12:58.082Z,11.56
2023-02-18T09:14:31.191Z,11.59
2023-02-18T09:16:04.891Z,11.58
2023-02-18T09:17:37.442Z,11.68
2023-02-18T09:19:09.560Z,11.76
2023-02-18T09:20:42.172Z,11.79
2023-02-18T09:22:14.203Z,11.87
2023-02-18T09:23:47.147Z,11.97
2023-02-18T09:25:19.332Z,12.11
2023-02-18T09:26:52.267Z,12.21
2023-02-18T09:28:24.151Z,12.32
2023-02-18T09:29:56.596Z,12.38
2023-02-18T09:31:29.456Z,12.44
2023-02-18T09:33:01.938Z,12.46
2023-02-18T09:34:34.924Z,12.51
2023-02-18T09:36:08.015Z,12.57
2023-02-18T09:37:42.669Z,12.71
2023-02-18T09:39:14.835Z,12.85
2023-02-18T09:40:48.346Z,12.93
2023-02-18T09:42:21.865Z,13.00
2023-02-18T09:43:54.165Z,13.03
2023-02-18T09:45:26.049Z,13.06
2023-02-18T09:47:03.973Z,13.17
2023-02-18T09:48:35.906Z,13.23
2023-02-18T09:50:23.305Z,13.36
2023-02-18T09:51:55.149Z,13.53
2023-02-18T09:53:27.113Z,13.64
2023-02-18T09:54:59.034Z,13.77
2023-02-18T09:56:32.241Z,13.85
2023-02-18T09:58:04.931Z,13.99
2023-02-18T09:59:36.831Z,14.04
2023-02-18T10:01:17.734Z,13.96
2023-02-18T10:02:56.617Z,14.05
2023-02-18T10:04:32.347Z,14.13
2023-02-18T10:06:04.478Z,14.14
2023-02-18T10:07:37.945Z,14.09
2023-02-18T10:09:30.597Z,14.08
2023-02-18T10:11:02.366Z,14.02
2023-02-18T10:12:35.169Z,14.00
2023-02-18T10:14:10.150Z,13.95
2023-02-18T10:15:43.162Z,13.90
2023-02-18T10:17:15.398Z,13.89
2023-02-18T10:18:49.381Z,13.77
2023-02-18T10:20:22.879Z,13.76
2023-02-18T10:21:54.708Z,13.75
2023-02-18T10:23:27.469Z,13.80
2023-02-18T10:25:00.631Z,13.98
2023-02-18T10:26:34.257Z,14.21
2023-02-18T10:28:06.030Z,14.28
2023-02-18T10:29:37.783Z,14.33
2023-02-18T10:31:11.684Z,14.49
2023-02-18T10:32:43.905Z,14.64
2023-02-18T10:34:18.620Z,14.85
2023-02-18T10:35:53.948Z,14.97
2023-02-18T10:37:44.104Z,15.14
2023-02-18T10:39:15.908Z,15.31
2023-02-18T10:40:58.515Z,15.49
2023-02-18T10:42:52.527Z,15.63
2023-02-18T10:44:31.233Z,15.74
2023-02-18T10:46:13.235Z,15.87
2023-02-18T10:48:21.523Z,15.92
2023-02-18T10:50:03.921Z,15.96
2023-02-18T10:51:36.126Z,15.96
2023-02-18T10:53:28.207Z,15.90
2023-02-18T10:55:01.337Z,15.87
2023-02-18T10:56:35.844Z,15.92
2023-02-18T10:58:26.556Z,16.11
2023-02-18T10:59:59.898Z,16.28
2023-02-18T11:01:32.116Z,16.40
2023-02-18T11:03:03.834Z,16.51
2023-02-18T11:04:37.494Z,16.63
2023-02-18T11:06:29.763Z,16.76
2023-02-18T11:08:02.945Z,16.88
2023-02-18T11:09:42.053Z,16.92
2023-02-18T11:11:18.175Z,16.90
2023-02-18T11:12:50.915Z,17.01
2023-02-18T11:14:36.549Z,17.01
2023-02-18T11:16:09.670Z,17.02
2023-02-18T11:17:42.087Z,17.05
2023-02-18T11:19:32.478Z,17.12
2023-02-18T11:21:24.450Z,17.21
2023-02-18T11:23:08.350Z,17.45
2023-02-18T11:24:40.326Z,17.73
2023-02-18T11:26:12.984Z,17.91
2023-02-18T11:27:45.883Z,17.96
2023-02-18T11:29:20.960Z,18.03
2023-02-18T11:30:57.296Z,18.12
2023-02-18T11:32:29.702Z,18.10
2023-02-18T11:34:01.553Z,18.17
2023-02-18T11:35:33.304Z,18.16
2023-02-18T11:37:12.218Z,18.20
2023-02-18T11:38:56.579Z,18.29
2023-02-18T11:40:29.658Z,18.16
2023-02-18T11:42:07.623Z,17.95
2023-02-18T11:43:42.898Z,17.84
2023-02-18T11:45:27.595Z,17.75
2023-02-18T11:47:14.996Z,17.74
2023-02-18T11:48:50.094Z,17.65
2023-02-18T11:50:22.731Z,17.56
2023-02-18T11:51:54.787Z,17.57
2023-02-18T11:53:26.485Z,17.61
2023-02-18T11:55:16.940Z,17.67
2023-02-18T11:56:59.129Z,17.72
2023-02-18T11:58:41.056Z,17.91
2023-02-18T12:00:35.936Z,18.05
2023-02-18T12:02:10.690Z,18.29
2023-02-18T12:03:45.879Z,18.54
2023-02-18T12:05:19.398Z,18.66
2023-02-18T12:06:51.458Z,18.63
2023-02-18T12:08:24.761Z,18.55
2023-02-18T12:09:57.857Z,18.61
2023-02-18T12:11:32.009Z,18.69
2023-02-18T12:13:04.303Z,18.75
2023-02-18T12:14:36.375Z,18.73
2023-02-18T12:16:10.952Z,18.77
2023-02-18T12:18:12.969Z,18.77
2023-02-18T12:20:00.422Z,18.85
2023-02-18T12:21:50.787Z,18.98
2023-02-18T12:23:25.672Z,18.84
2023-02-18T12:25:16.352Z,18.77
2023-02-18T12:27:04.372Z,18.86
2023-02-18T12:28:54.178Z,18.90
2023-02-18T12:30:29.321Z,18.92
2023-02-18T12:32:19.371Z,19.01
2023-02-18T12:33:56.796Z,18.99
2023-02-18T12:35:31.701Z,19.05
2023-02-18T12:37:09.808Z,19.16
2023-02-18T12:39:00.425Z,19.16
2023-02-18T12:40:46.181Z,19.28
2023-02-18T12:42:18.098Z,19.30
2023-02-18T12:43:56.726Z,19.48
2023-02-18T12:45:50.410Z,19.58
2023-02-18T12:47:45.485Z,19.62
2023-02-18T12:49:24.580Z,19.63
2023-02-18T12:51:14.707Z,19.50
2023-02-18T12:52:58.641Z,19.17
2023-02-18T12:54:37.959Z,19.06
2023-02-18T12:56:10.746Z,19.06
2023-02-18T12:57:42.813Z,19.18
2023-02-18T12:59:14.904Z,19.22
2023-02-18T13:00:49.626Z,19.19
2023-02-18T13:02:25.057Z,19.17
2023-02-18T13:04:15.198Z,19.16
2023-02-18T13:06:02.210Z,19.20
2023-02-18T13:07:36.797Z,19.25
2023-02-18T13:09:18.160Z,19.15
2023-02-18T13:10:52.775Z,19.15
2023-02-18T13:12:38.091Z,19.09
2023-02-18T13:14:14.206Z,19.09
2023-02-18T13:15:53.047Z,18.95
2023-02-18T13:17:26.541Z,18.92
2023-02-18T13:19:17.070Z,18.93
2023-02-18T13:20:50.374Z,18.92
2023-02-18T13:22:23.366Z,18.82
2023-02-18T13:23:58.199Z,18.71
2023-02-18T13:25:29.956Z,18.66
2023-02-18T13:27:07.532Z,18.64
2023-02-18T13:28:44.350Z,18.45
2023-02-18T13:30:34.662Z,18.40
2023-02-18T13:32:08.160Z,18.39
2023-02-18T13:33:39.972Z,18.37
2023-02-18T13:35:33.258Z,18.37
2023-02-18T13:37:27.337Z,18.28
2023-02-18T13:39:01.671Z,18.20
2023-02-18T13:40:34.018Z,18.18
2023-02-18T13:42:18.079Z,18.12
2023-02-18T13:43:49.809Z,18.16
2023-02-18T13:45:31.566Z,18.14
2023-02-18T13:47:03.213Z,18.14
2023-02-18T13:48:36.492Z,18.20
2023-02-18T13:50:34.474Z,18.22
2023-02-18T13:52:06.380Z,18.28
2023-02-18T13:53:39.011Z,18.25
2023-02-18T13:55:20.718Z,18.14
2023-02-18T13:56:58.861Z,18.04
2023-02-18T13:58:49.336Z,17.98
2023-02-18T14:00:22.510Z,17.96
2023-02-18T14:01:54.355Z,18.02
2023-02-18T14:03:38.274Z,18.08
2023-02-18T14:05:10.333Z,18.19
2023-02-18T14:06:44.181Z,18.26
2023-02-18T14:08:16.358Z,18.30
2023-02-18T14:09:48.760Z,18.30
2023-02-18T14:11:20.650Z,18.30
2023-02-18T14:12:58.336Z,18.18
2023-02-18T14:14:32.283Z,18.09
2023-02-18T14:16:04.062Z,17.95
2023-02-18T14:17:37.878Z,17.88
2023-02-18T14:19:25.921Z,17.81
2023-02-18T14:21:17.887Z,17.76
2023-02-18T14:22:50.496Z,17.72
2023-02-18T14:24:42.092Z,17.72
2023-02-18T14:26:14.485Z,17.71
2023-02-18T14:27:46.081Z,17.74
2023-02-18T14:29:21.096Z,17.80
2023-02-18T14:30:53.169Z,17.77
2023-02-18T14:32:25.155Z,17.74
2023-02-18T14:34:00.968Z,17.73
2023-02-18T14:35:37.529Z,17.77
2023-02-18T14:37:31.751Z,17.76
2023-02-18T14:39:07.692Z,17.80
2023-02-18T14:40:49.159Z,17.75
2023-02-18T14:42:36.710Z,17.67
2023-02-18T14:44:11.632Z,17.69
2023-02-18T14:46:02.182Z,17.70
2023-02-18T14:47:39.754Z,17.63
2023-02-18T14:49:17.286Z,17.56
2023-02-18T14:50:52.933Z,17.45
2023-02-18T14:52:36.623Z,17.31
2023-02-18T14:54:13.500Z,17.12
2023-02-18T14:55:49.510Z,16.99
2023-02-18T14:57:24.211Z,16.90
2023-02-18T14:58:59.656Z,16.88
2023-02-18T15:00:33.779Z,16.83
2023-02-18T15:02:10.036Z,16.80
2023-02-18T15:03:42.056Z,16.84
2023-02-18T15:05:17.053Z,16.84
2023-02-18T15:06:57.889Z,16.79
2023-02-18T15:08:29.774Z,16.84
2023-02-18T15:10:01.369Z,16.86
2023-02-18T15:11:37.200Z,16.89
2023-02-18T15:13:10.155Z,16.95
2023-02-18T15:14:42.388Z,17.00
2023-02-18T15:16:19.008Z,17.06
2023-02-18T15:17:50.561Z,17.10
2023-02-18T15:19:23.139Z,17.09
2023-02-18T15:20:55.637Z,17.12
2023-02-18T15:22:27.721Z,17.11
2023-02-18T15:24:01.332Z,17.10
2023-02-18T15:25:33.197Z,17.11
2023-02-18T15:27:25.216Z,17.08
2023-02-18T15:29:00.946Z,16.95
2023-02-18T15:30:33.148Z,16.91
2023-02-18T15:32:16.941Z,16.84
2023-02-18T15:33:48.819Z,16.86
2023-02-18T15:35:20.751Z,16.85
2023-02-18T15:36:52.720Z,16.80
2023-02-18T15:38:24.688Z,16.75
2023-02-18T15:39:56.430Z,16.71
2023-02-18T15:41:29.933Z,16.67
2023-02-18T15:43:02.250Z,16.57
2023-02-18T15:44:34.631Z,16.51
2023-02-18T15:46:10.852Z,16.40
2023-02-18T15:47:42.703Z,16.32
2023-02-18T15:49:15.512Z,16.30
2023-02-18T15:50:51.688Z,16.27
2023-02-18T15:52:36.409Z,16.30
2023-02-18T15:54:12.704Z,16.25
2023-02-18T15:55:46.763Z,16.20
2023-02-18T15:57:18.432Z,16.17
2023-02-18T15:58:50.218Z,16.13
2023-02-18T16:00:26.773Z,16.11
2023-02-18T16:02:04.224Z,16.05
2023-02-18T16:03:36.023Z,15.97
2023-02-18T16:05:12.934Z,15.89
2023-02-18T16:06:47.494Z,15.83
2023-02-18T16:08:28.517Z,15.76
2023-02-18T16:10:18.940Z,15.69
2023-02-18T16:11:52.156Z,15.61
2023-02-18T16:13:26.449Z,15.56
2023-02-18T16:15:00.290Z,15.48
2023-02-18T16:16:35.905Z,15.37
2023-02-18T16:18:07.650Z,15.24
2023-02-18T16:19:45.011Z,15.10
2023-02-18T16:21:20.944Z,15.03
2023-02-18T16:22:53.246Z,14.93
2023-02-18T16:24:28.624Z,14.80
2023-02-18T16:26:09.562Z,14.72
2023-02-18T16:28:07.549Z,14.63
2023-02-18T16:33:09.538Z,14.44
2023-02-18T16:34:51.589Z,14.41
2023-02-18T16:36:26.225Z,14.39
2023-02-18T16:37:58.366Z,14.32
2023-02-18T16:39:31.331Z,14.27
2023-02-18T16:41:03.167Z,14.14
2023-02-18T16:42:35.592Z,14.05
2023-02-18T16:44:11.279Z,13.93
2023-02-18T16:45:49.763Z,13.80
2023-02-18T16:47:22.008Z,13.67
2023-02-18T16:48:55.882Z,13.59
2023-02-18T16:50:28.048Z,13.56
2023-02-18T16:52:00.517Z,13.57
2023-02-18T16:53:32.222Z,13.58
2023-02-18T16:55:06.197Z,13.59
2023-02-18T16:56:37.951Z,13.60
2023-02-18T16:58:10.031Z,13.66
2023-02-18T16:59:41.878Z,13.71
2023-02-18T17:01:41.790Z,13.73
2023-02-18T17:03:13.814Z,13.76
2023-02-18T17:04:45.710Z,13.75
2023-02-18T17:06:17.643Z,13.74
2023-02-18T17:07:49.786Z,13.73
2023-02-18T17:09:23.011Z,13.64
2023-02-18T17:10:55.582Z,13.61
2023-02-18T17:12:27.283Z,13.61
2023-02-18T17:13:59.554Z,13.57
2023-02-18T17:15:33.047Z,13.48
2023-02-18T17:20:21.256Z,13.31
2023-02-18T17:21:53.863Z,13.23
2023-02-18T17:23:25.556Z,13.15
2023-02-18T17:24:57.596Z,13.10
2023-02-18T17:26:30.068Z,13.05
2023-02-18T17:28:02.126Z,12.98
2023-02-18T17:29:33.878Z,12.95
2023-02-18T17:31:06.008Z,12.93
2023-02-18T17:32:37.877Z,12.94
2023-02-18T17:34:10.186Z,12.90
2023-02-18T17:35:41.830Z,12.88
2023-02-18T17:37:14.138Z,12.89
2023-02-18T17:38:45.974Z,12.94
2023-02-18T17:40:18.356Z,12.96
2023-02-18T17:41:50.046Z,12.96
2023-02-18T17:43:25.433Z,12.93
2023-02-18T17:44:57.364Z,12.95
2023-02-18T17:46:29.220Z,12.94
2023-02-18T17:48:01.000Z,12.96
2023-02-18T17:49:33.069Z,12.91
2023-02-18T17:51:06.544Z,12.86
2023-02-18T17:52:38.826Z,12.81
2023-02-18T17:54:14.797Z,12.79
2023-02-18T17:55:47.521Z,12.79
2023-02-18T17:57:19.318Z,12.75
2023-02-18T17:58:51.343Z,12.77
2023-02-18T18:00:43.277Z,12.75
2023-02-18T18:02:24.238Z,12.68
2023-02-18T18:03:55.897Z,12.66
2023-02-18T18:05:28.984Z,12.65
2023-02-18T18:07:01.210Z,12.65
2023-02-18T18:08:33.325Z,12.65
2023-02-18T18:10:05.111Z,12.66
2023-02-18T18:11:37.144Z,12.69
2023-02-18T18:13:10.120Z,12.75
2023-02-18T18:14:42.174Z,12.78
2023-02-18T18:16:14.610Z,12.82
2023-02-18T18:17:46.349Z,12.89
2023-02-18T18:19:18.272Z,12.98
2023-02-18T18:20:54.164Z,13.07
2023-02-18T18:22:25.858Z,13.13
2023-02-18T18:23:57.472Z,13.18
2023-02-18T18:25:39.521Z,13.19
2023-02-18T18:27:11.370Z,13.17
2023-02-18T18:28:43.191Z,13.11
2023-02-18T18:30:14.956Z,13.08
2023-02-18T18:31:47.046Z,13.03
2023-02-18T18:33:23.276Z,12.98
2023-02-18T18:34:54.865Z,12.93
2023-02-18T18:36:26.604Z,12.89
2023-02-18T18:37:58.527Z,12.85
2023-02-18T18:39:30.421Z,12.81
2023-02-18T18:41:03.281Z,12.81
2023-02-18T18:42:34.826Z,12.82
2023-02-18T18:44:06.523Z,12.78
2023-02-18T18:45:38.160Z,12.76
2023-02-18T18:47:10.293Z,12.73
2023-02-18T18:48:42.131Z,12.70
2023-02-18T18:50:13.959Z,12.67
2023-02-18T18:51:45.759Z,12.65
2023-02-18T18:53:20.516Z,12.63
2023-02-18T18:54:52.112Z,12.61
2023-02-18T18:56:23.822Z,12.61
2023-02-18T18:57:55.973Z,12.65
2023-02-18T18:59:27.641Z,12.66
2023-02-18T19:01:00.406Z,12.70
2023-02-18T19:02:38.833Z,12.64
2023-02-18T19:04:10.504Z,12.53
2023-02-18T19:05:42.616Z,12.46
2023-02-18T19:07:14.300Z,12.38
2023-02-18T19:08:47.990Z,12.36
2023-02-18T19:10:19.925Z,12.38
2023-02-18T19:11:51.776Z,12.41
2023-02-18T19:13:24.177Z,12.41
2023-02-18T19:14:55.947Z,12.38
2023-02-18T19:16:37.663Z,12.44
2023-02-18T19:18:11.713Z,12.50
2023-02-18T19:19:43.406Z,12.53
2023-02-18T19:21:15.106Z,12.55
2023-02-18T19:22:46.718Z,12.52
2023-02-18T19:24:18.390Z,12.49
2023-02-18T19:25:49.974Z,12.45
2023-02-18T19:27:22.088Z,12.41
2023-02-18T19:28:53.904Z,12.39
2023-02-18T19:30:26.555Z,12.37
2023-02-18T19:31:58.529Z,12.35
2023-02-18T19:33:30.433Z,12.31
2023-02-18T19:35:02.052Z,12.25
2023-02-18T19:36:33.698Z,12.21
2023-02-18T19:38:07.026Z,12.12
2023-02-18T19:39:39.114Z,12.07
2023-02-18T19:41:14.270Z,12.03
2023-02-18T19:42:45.868Z,12.00
2023-02-18T19:44:17.407Z,11.98
2023-02-18T19:45:49.527Z,11.99
2023-02-18T19:47:22.473Z,12.00
2023-02-18T19:48:54.306Z,11.97
2023-02-18T19:50:26.182Z,11.99
2023-02-18T19:52:04.426Z,12.01
2023-02-18T19:53:36.041Z,12.04
2023-02-18T19:55:07.906Z,12.06
2023-02-18T19:56:39.625Z,12.05
2023-02-18T19:58:11.311Z,12.07
2023-02-18T19:59:42.903Z,12.07
2023-02-18T20:01:15.204Z,12.09
2023-02-18T20:02:47.143Z,12.09
2023-02-18T20:04:19.101Z,12.10
2023-02-18T20:05:50.805Z,12.09
2023-02-18T20:07:22.685Z,12.03
2023-02-18T20:08:56.142Z,11.95
2023-02-18T20:10:29.675Z,11.89
2023-02-18T20:12:01.632Z,11.78
2023-02-18T20:13:34.424Z,11.69
2023-02-18T20:15:06.135Z,11.64
2023-02-18T20:16:37.864Z,11.62
2023-02-18T20:18:09.476Z,11.61
2023-02-18T20:19:41.526Z,11.57
2023-02-18T20:21:13.383Z,11.56
2023-02-18T20:22:45.123Z,11.54
2023-02-18T20:24:16.867Z,11.51
2023-02-18T20:25:48.681Z,11.52
2023-02-18T20:27:20.262Z,11.53
2023-02-18T20:28:51.973Z,11.52
2023-02-18T20:30:23.647Z,11.53
2023-02-18T20:31:55.313Z,11.51
2023-02-18T20:33:27.227Z,11.51
2023-02-18T20:34:59.066Z,11.51
2023-02-18T20:36:30.724Z,11.51
2023-02-18T20:38:02.328Z,11.48
2023-02-18T20:39:34.256Z,11.45
2023-02-18T20:41:06.507Z,11.43
2023-02-18T20:42:39.100Z,11.44